< < Back
Terminal Aerodrome Forecast


Current Version              Previous Versions:   1  2  3  4  5  6  7  8  9  

Terminal Aerodrome Forecast

840
FTUS44 KMRX 261723
TAFCHA
TAF
KCHA 261723Z 2618/2718 04006KT P6SM SCT050
     FM262000 06006KT P6SM VCTS BKN060CB
     FM270100 00000KT P6SM FEW060
     FM271500 13005KT P6SM SCT050=

Latest METAR

319
SAUS80 KWBC 270900
MTRCHA
METAR KCHA 270853Z 00000KT 7SM CLR 23/23 A3007 RMK AO2 SLP174 T02330228
56008 $


USA.gov is the U.S. government's official web portal to all federal, state and local government web resources and services.